Temp: 12.8°C   Baro: 995.2mb
  Wind: 6.0mph   Dir: SW (226°)
  Rain: 1.8mm (0.0mm/hr)
  Solar: 97W/m2  Hum: 84%
 
Bath Spa Weather Station Historical Data
Daily Summary for May 04, 2021 Units:  Both    English   Metric
Daily Weekly Monthly Yearly Custom
  High: Low: Average:
Temperature: 53.5 °F /  11.9 °C 41 °F /  5 °C 47.9 °F /  8.8 °C
Dew Point: 45.3 °F /  7.4 °C 36.2 °F /  2.3 °C 40.2 °F /  4.6 °C
Humidity: 89% 53.2% 73%
Wind Speed: 16.3mph /  26.2km/h - 10.4mph /  16.7km/h
Wind Gust: 32mph /  51.5km/h - -
Wind- - WNW
Pressure: 29.75 in /  1007.3 hPa 29.39 in /  995.1 hPa -
Precipitation: 0.03 in /  0.76 mm    
Historical Graphs
 
 
Tabular Data for May 04, 2021
Time Temperature Dew Point Pressure Wind Wind Speed Wind Gust Humidity Rainfall Rate (Hourly) solar
00:04 46.8 °F /  8.2 °C 44 °F /  6.7 °C 29.41in /  995.8hPa WSW 10mph /  16.1km/h 20mph /  32.2km/h 86.8% 0.02in /  0.51mm 0 W/m2
00:09 46.5 °F /  8.1 °C 44.1 °F /  6.7 °C 29.41in /  995.8hPa West 10.2mph /  16.4km/h 19mph /  30.6km/h 88.2% 0.02in /  0.51mm 0 W/m2
00:14 46.5 °F /  8.1 °C 44.3 °F /  6.8 °C 29.41in /  995.8hPa West 12.2mph /  19.6km/h 19mph /  30.6km/h 89% 0.02in /  0.51mm 0 W/m2
00:19 46.7 °F /  8.2 °C 44.6 °F /  7 °C 29.41in /  995.8hPa WSW 12.4mph /  20km/h 21mph /  33.8km/h 89% 0.02in /  0.51mm 0 W/m2
00:24 47 °F /  8.3 °C 44.9 °F /  7.2 °C 29.41in /  995.8hPa West 13.8mph /  22.2km/h 24mph /  38.6km/h 89% 0.02in /  0.51mm 0 W/m2
00:29 47.4 °F /  8.6 °C 45.1 °F /  7.3 °C 29.41in /  995.8hPa WSW 10.5mph /  16.9km/h 26mph /  41.8km/h 88.5% 0.02in /  0.51mm 0 W/m2
00:34 47.6 °F /  8.7 °C 45 °F /  7.2 °C 29.41in /  995.8hPa WSW 12.5mph /  20.1km/h 21mph /  33.8km/h 88% 0.02in /  0.51mm 0 W/m2
00:39 47.7 °F /  8.7 °C 45.1 °F /  7.3 °C 29.40in /  995.5hPa West 8.3mph /  13.4km/h 20mph /  32.2km/h 88% 0.02in /  0.51mm 0 W/m2
00:44 47.7 °F /  8.7 °C 45.1 °F /  7.3 °C 29.40in /  995.5hPa West 10mph /  16.1km/h 23mph /  37km/h 88% 0.02in /  0.51mm 0 W/m2
00:49 47.8 °F /  8.8 °C 45 °F /  7.2 °C 29.40in /  995.5hPa West 11.2mph /  18km/h 25mph /  40.2km/h 87.2% 0.02in /  0.51mm 0 W/m2
00:54 48 °F /  8.9 °C 45.1 °F /  7.3 °C 29.40in /  995.5hPa WSW 7.4mph /  11.9km/h 25mph /  40.2km/h 87% 0.02in /  0.51mm 0 W/m2
00:59 48 °F /  8.9 °C 45.1 °F /  7.3 °C 29.40in /  995.5hPa West 8.8mph /  14.2km/h 21mph /  33.8km/h 87% 0.02in /  0.51mm 0 W/m2
01:04 48.3 °F /  9.1 °C 45.3 °F /  7.4 °C 29.40in /  995.5hPa West 12.4mph /  20km/h 24mph /  38.6km/h 86.2% 0.01in /  0.25mm 0 W/m2
01:09 48.6 °F /  9.2 °C 45.1 °F /  7.3 °C 29.40in /  995.5hPa West 12.8mph /  20.6km/h 26mph /  41.8km/h 85% 0.00in /  0mm 0 W/m2
01:14 48.7 °F /  9.3 °C 45.1 °F /  7.3 °C 29.40in /  995.5hPa West 12.2mph /  19.6km/h 23mph /  37km/h 84.4% 0.00in /  0mm 0 W/m2
01:19 48.7 °F /  9.3 °C 45 °F /  7.2 °C 29.40in /  995.5hPa West 11.6mph /  18.7km/h 25mph /  40.2km/h 84% 0.00in /  0mm 0 W/m2
01:24 48.7 °F /  9.3 °C 45 °F /  7.2 °C 29.40in /  995.5hPa WNW 10.8mph /  17.4km/h 25mph /  40.2km/h 84% 0.00in /  0mm 0 W/m2
01:29 48.8 °F /  9.3 °C 45 °F /  7.2 °C 29.40in /  995.5hPa WNW 14.1mph /  22.7km/h 32mph /  51.5km/h 84% 0.00in /  0mm 0 W/m2
01:34 48.9 °F /  9.4 °C 44.8 °F /  7.1 °C 29.40in /  995.5hPa WNW 10.7mph /  17.2km/h 28mph /  45.1km/h 83% 0.00in /  0mm 0 W/m2
01:39 48.7 °F /  9.3 °C 44.8 °F /  7.1 °C 29.40in /  995.5hPa West 8.2mph /  13.2km/h 20mph /  32.2km/h 83% 0.00in /  0mm 0 W/m2
01:44 48.7 °F /  9.3 °C 44.8 °F /  7.1 °C 29.39in /  995.1hPa West 13.2mph /  21.2km/h 25mph /  40.2km/h 83% 0.00in /  0mm 0 W/m2
01:49 48.7 °F /  9.3 °C 44.8 °F /  7.1 °C 29.40in /  995.5hPa West 8.2mph /  13.2km/h 16mph /  25.7km/h 83.2% 0.00in /  0mm 0 W/m2
01:54 48.7 °F /  9.3 °C 44.9 °F /  7.2 °C 29.40in /  995.5hPa West 13.4mph /  21.6km/h 29mph /  46.7km/h 84% 0.00in /  0mm 0 W/m2
01:59 48.6 °F /  9.2 °C 44.8 °F /  7.1 °C 29.40in /  995.5hPa WNW 7.8mph /  12.6km/h 29mph /  46.7km/h 84% 0.00in /  0mm 0 W/m2
02:04 48.6 °F /  9.2 °C 45 °F /  7.2 °C 29.40in /  995.5hPa West 11mph /  17.7km/h 19mph /  30.6km/h 84.8% 0.00in /  0mm 0 W/m2
02:09 48.4 °F /  9.1 °C 45 °F /  7.2 °C 29.41in /  995.8hPa WNW 16.2mph /  26.1km/h 28mph /  45.1km/h 85% 0.00in /  0mm 0 W/m2
02:14 48.6 °F /  9.2 °C 45.1 °F /  7.3 °C 29.41in /  995.8hPa West 9.8mph /  15.8km/h 27mph /  43.5km/h 85% 0.00in /  0mm 0 W/m2
02:19 48.4 °F /  9.1 °C 44.6 °F /  7 °C 29.41in /  995.8hPa WNW 10.6mph /  17.1km/h 19mph /  30.6km/h 84% 0.00in /  0mm 0 W/m2
02:24 48.6 °F /  9.2 °C 44.8 °F /  7.1 °C 29.41in /  995.8hPa West 13.2mph /  21.2km/h 27mph /  43.5km/h 84% 0.00in /  0mm 0 W/m2
02:29 48.6 °F /  9.2 °C 44.8 °F /  7.1 °C 29.41in /  995.8hPa West 10.8mph /  17.4km/h 21mph /  33.8km/h 84% 0.00in /  0mm 0 W/m2
02:34 48.5 °F /  9.2 °C 44.6 °F /  7 °C 29.41in /  995.8hPa WNW 12.4mph /  20km/h 21mph /  33.8km/h 83.6% 0.00in /  0mm 0 W/m2
02:39 48.6 °F /  9.2 °C 44.6 °F /  7 °C 29.41in /  995.8hPa WNW 9.7mph /  15.6km/h 25mph /  40.2km/h 83% 0.00in /  0mm 0 W/m2
02:44 48.6 °F /  9.2 °C 44.6 °F /  7 °C 29.41in /  995.8hPa West 12.6mph /  20.3km/h 22mph /  35.4km/h 83% 0.00in /  0mm 0 W/m2
02:49 48.5 °F /  9.2 °C 44.6 °F /  7 °C 29.41in /  995.8hPa West 13mph /  20.9km/h 23mph /  37km/h 83.8% 0.00in /  0mm 0 W/m2
02:54 48.3 °F /  9.1 °C 44.5 °F /  6.9 °C 29.41in /  995.8hPa WNW 12mph /  19.3km/h 23mph /  37km/h 84% 0.00in /  0mm 0 W/m2
02:59 48.1 °F /  8.9 °C 44.6 °F /  7 °C 29.41in /  995.8hPa West 11.5mph /  18.5km/h 17mph /  27.4km/h 84.8% 0.00in /  0mm 0 W/m2
03:04 48 °F /  8.9 °C 44.6 °F /  7 °C 29.41in /  995.8hPa West 10mph /  16.1km/h 16mph /  25.7km/h 85% 0.00in /  0mm 0 W/m2
03:09 48 °F /  8.9 °C 44.6 °F /  7 °C 29.41in /  995.8hPa West 8.2mph /  13.2km/h 18mph /  29km/h 85% 0.00in /  0mm 0 W/m2
03:14 47.9 °F /  8.8 °C 44.6 °F /  7 °C 29.41in /  995.8hPa WNW 8.8mph /  14.2km/h 15mph /  24.1km/h 85.4% 0.00in /  0mm 0 W/m2
03:19 47.7 °F /  8.7 °C 44.7 °F /  7.1 °C 29.41in /  995.8hPa West 8.6mph /  13.8km/h 22mph /  35.4km/h 86% 0.00in /  0mm 0 W/m2
03:24 47.7 °F /  8.7 °C 44.7 °F /  7.1 °C 29.41in /  995.8hPa West 12.2mph /  19.6km/h 17mph /  27.4km/h 86% 0.00in /  0mm 0 W/m2
03:29 47.8 °F /  8.8 °C 45 °F /  7.2 °C 29.41in /  995.8hPa West 11.4mph /  18.3km/h 21mph /  33.8km/h 86.8% 0.00in /  0mm 0 W/m2
03:34 47.8 °F /  8.8 °C 45 °F /  7.2 °C 29.40in /  995.5hPa West 10.8mph /  17.4km/h 21mph /  33.8km/h 87% 0.00in /  0mm 0 W/m2
03:39 47.8 °F /  8.8 °C 44.8 °F /  7.1 °C 29.40in /  995.5hPa West 10.6mph /  17.1km/h 17mph /  27.4km/h 86% 0.00in /  0mm 0 W/m2
03:44 47.9 °F /  8.8 °C 44.9 °F /  7.2 °C 29.40in /  995.5hPa West 12.8mph /  20.6km/h 17mph /  27.4km/h 86% 0.00in /  0mm 0 W/m2
03:49 47.7 °F /  8.7 °C 44.8 °F /  7.1 °C 29.41in /  995.8hPa West 12.4mph /  20km/h 24mph /  38.6km/h 86.6% 0.01in /  0.25mm 0 W/m2
03:54 47.5 °F /  8.6 °C 44.8 °F /  7.1 °C 29.41in /  995.8hPa WNW 16mph /  25.7km/h 25mph /  40.2km/h 87% 0.01in /  0.25mm 0 W/m2
03:59 47.3 °F /  8.5 °C 44.6 °F /  7 °C 29.41in /  995.8hPa West 16.1mph /  25.9km/h 25mph /  40.2km/h 87% 0.01in /  0.25mm 0 W/m2
04:04 47.1 °F /  8.4 °C 44.4 °F /  6.9 °C 29.41in /  995.8hPa WNW 13.8mph /  22.2km/h 28mph /  45.1km/h 87% 0.01in /  0.25mm 0 W/m2
04:09 47.1 °F /  8.4 °C 44.1 °F /  6.7 °C 29.41in /  995.8hPa WNW 11.1mph /  17.9km/h 21mph /  33.8km/h 86% 0.01in /  0.25mm 0 W/m2
04:14 46.9 °F /  8.3 °C 43.8 °F /  6.6 °C 29.41in /  995.8hPa WNW 12.5mph /  20.1km/h 25mph /  40.2km/h 85.6% 0.01in /  0.25mm 0 W/m2
04:19 46.7 °F /  8.2 °C 43 °F /  6.1 °C 29.42in /  996.2hPa WNW 14.5mph /  23.3km/h 26mph /  41.8km/h 84.2% 0.01in /  0.25mm 0 W/m2
04:24 46.4 °F /  8 °C 42.3 °F /  5.7 °C 29.42in /  996.2hPa WNW 12.8mph /  20.6km/h 29mph /  46.7km/h 82.4% 0.01in /  0.25mm 0 W/m2
04:29 46.2 °F /  7.9 °C 41.9 °F /  5.5 °C 29.42in /  996.2hPa WNW 14.6mph /  23.5km/h 29mph /  46.7km/h 82% 0.01in /  0.25mm 0 W/m2
04:34 46.2 °F /  7.9 °C 41.9 °F /  5.5 °C 29.43in /  996.5hPa West 12.4mph /  20km/h 25mph /  40.2km/h 82% 0.01in /  0.25mm 0 W/m2
04:39 46 °F /  7.8 °C 41.7 °F /  5.4 °C 29.44in /  996.8hPa WNW 14.8mph /  23.8km/h 24mph /  38.6km/h 82% 0.01in /  0.25mm 0 W/m2
04:44 45.8 °F /  7.7 °C 41.6 °F /  5.3 °C 29.44in /  996.8hPa West 10.5mph /  16.9km/h 20mph /  32.2km/h 82.5% 0.01in /  0.25mm 0 W/m2
04:49 45.5 °F /  7.5 °C 41.6 °F /  5.3 °C 29.44in /  996.8hPa West 16mph /  25.7km/h 27mph /  43.5km/h 83.2% 0.00in /  0mm 0 W/m2
04:54 45 °F /  7.2 °C 41.5 °F /  5.3 °C 29.45in /  997.2hPa WNW 12mph /  19.3km/h 30mph /  48.3km/h 84.6% 0.00in /  0mm 0 W/m2
04:59 44.6 °F /  7 °C 41.5 °F /  5.3 °C 29.46in /  997.5hPa WNW 14mph /  22.5km/h 25mph /  40.2km/h 86% 0.02in /  0.51mm 0 W/m2
05:04 44.2 °F /  6.8 °C 41.5 °F /  5.3 °C 29.46in /  997.5hPa WNW 11.5mph /  18.5km/h 25mph /  40.2km/h 87% 0.02in /  0.51mm 0 W/m2
05:09 44.1 °F /  6.7 °C 41.4 °F /  5.2 °C 29.46in /  997.5hPa WNW 12.6mph /  20.3km/h 27mph /  43.5km/h 87% 0.02in /  0.51mm 0 W/m2
05:14 44.1 °F /  6.7 °C 41 °F /  5 °C 29.46in /  997.5hPa WNW 12.1mph /  19.5km/h 26mph /  41.8km/h 86% 0.02in /  0.51mm 0 W/m2
05:19 44.2 °F /  6.8 °C 40.6 °F /  4.8 °C 29.46in /  997.5hPa WNW 12.3mph /  19.8km/h 26mph /  41.8km/h 84% 0.02in /  0.51mm 0 W/m2
05:24 44.2 °F /  6.8 °C 40.3 °F /  4.6 °C 29.47in /  997.9hPa WNW 10mph /  16.1km/h 20mph /  32.2km/h 83% 0.02in /  0.51mm 0 W/m2
05:29 44.2 °F /  6.8 °C 40.3 °F /  4.6 °C 29.47in /  997.9hPa WNW 10.7mph /  17.2km/h 17mph /  27.4km/h 83% 0.02in /  0.51mm 0 W/m2
05:34 44.2 °F /  6.8 °C 40.1 °F /  4.5 °C 29.47in /  997.9hPa WNW 8.2mph /  13.2km/h 18mph /  29km/h 82.4% 0.02in /  0.51mm 0 W/m2
05:39 44.2 °F /  6.8 °C 40.2 °F /  4.6 °C 29.47in /  997.9hPa WNW 9.5mph /  15.3km/h 16mph /  25.7km/h 82.8% 0.02in /  0.51mm 0 W/m2
05:44 44.2 °F /  6.8 °C 40.2 °F /  4.6 °C 29.47in /  997.9hPa WNW 13mph /  20.9km/h 22mph /  35.4km/h 82.6% 0.02in /  0.51mm 0 W/m2
05:49 44.4 °F /  6.9 °C 40.1 °F /  4.5 °C 29.47in /  997.9hPa WNW 9.5mph /  15.3km/h 19mph /  30.6km/h 82% 0.02in /  0.51mm 5 W/m2
05:54 44.4 °F /  6.9 °C 40.1 °F /  4.5 °C 29.47in /  997.9hPa WNW 8mph /  12.9km/h 15mph /  24.1km/h 82% 0.02in /  0.51mm 5 W/m2
05:59 44.6 °F /  7 °C 40.3 °F /  4.6 °C 29.48in /  998.2hPa WNW 10.6mph /  17.1km/h 17mph /  27.4km/h 82% 0.01in /  0.25mm 11 W/m2
06:04 44.8 °F /  7.1 °C 40.5 °F /  4.7 °C 29.48in /  998.2hPa WNW 10.3mph /  16.6km/h 21mph /  33.8km/h 82% 0.00in /  0mm 16 W/m2
06:09 44.8 °F /  7.1 °C 40.5 °F /  4.7 °C 29.48in /  998.2hPa WNW 10.6mph /  17.1km/h 21mph /  33.8km/h 82% 0.00in /  0mm 16 W/m2
06:14 44.9 °F /  7.2 °C 40.6 °F /  4.8 °C 29.48in /  998.2hPa West 9.7mph /  15.6km/h 23mph /  37km/h 82% 0.00in /  0mm 33 W/m2
06:19 45 °F /  7.2 °C 40.4 °F /  4.7 °C 29.49in /  998.5hPa WNW 10.4mph /  16.7km/h 18mph /  29km/h 81.4% 0.00in /  0mm 46 W/m2
06:24 45.1 °F /  7.3 °C 40.4 °F /  4.7 °C 29.49in /  998.5hPa WNW 14.9mph /  24km/h 27mph /  43.5km/h 80.6% 0.00in /  0mm 47 W/m2
06:29 45.3 °F /  7.4 °C 40.5 °F /  4.7 °C 29.49in /  998.5hPa WNW 14.4mph /  23.2km/h 22mph /  35.4km/h 80% 0.00in /  0mm 62 W/m2
06:34 45.3 °F /  7.4 °C 40.5 °F /  4.7 °C 29.49in /  998.5hPa WNW 10.2mph /  16.4km/h 17mph /  27.4km/h 80% 0.00in /  0mm 79 W/m2
06:39 45.3 °F /  7.4 °C 40.5 °F /  4.7 °C 29.50in /  998.9hPa WNW 9.2mph /  14.8km/h 18mph /  29km/h 80% 0.00in /  0mm 74 W/m2
06:44 45.4 °F /  7.4 °C 40.7 °F /  4.8 °C 29.50in /  998.9hPa West 7.9mph /  12.7km/h 17mph /  27.4km/h 81% 0.00in /  0mm 79 W/m2
06:49 45.5 °F /  7.5 °C 40.8 °F /  4.9 °C 29.51in /  999.2hPa WNW 10.9mph /  17.5km/h 22mph /  35.4km/h 81% 0.00in /  0mm 76 W/m2
06:54 45.6 °F /  7.6 °C 40.8 °F /  4.9 °C 29.51in /  999.2hPa WNW 12.4mph /  20km/h 22mph /  35.4km/h 80.6% 0.00in /  0mm 63 W/m2
06:59 45.7 °F /  7.6 °C 40.7 °F /  4.8 °C 29.51in /  999.2hPa WNW 10.6mph /  17.1km/h 23mph /  37km/h 79.8% 0.00in /  0mm 77 W/m2
07:04 45.7 °F /  7.6 °C 40.5 °F /  4.7 °C 29.51in /  999.2hPa WNW 9.6mph /  15.4km/h 16mph /  25.7km/h 79% 0.00in /  0mm 91 W/m2
07:09 45.8 °F /  7.7 °C 40.5 °F /  4.7 °C 29.51in /  999.2hPa WNW 9.8mph /  15.8km/h 22mph /  35.4km/h 79% 0.00in /  0mm 135 W/m2
07:14 45.9 °F /  7.7 °C 40.7 °F /  4.8 °C 29.52in /  999.5hPa WNW 10.7mph /  17.2km/h 19mph /  30.6km/h 79% 0.00in /  0mm 151 W/m2
07:19 46.1 °F /  7.8 °C 40.9 °F /  4.9 °C 29.52in /  999.5hPa WNW 10.7mph /  17.2km/h 24mph /  38.6km/h 79% 0.00in /  0mm 169 W/m2
07:24 46.2 °F /  7.9 °C 41 °F /  5 °C 29.52in /  999.5hPa West 13mph /  20.9km/h 20mph /  32.2km/h 79% 0.00in /  0mm 183 W/m2
07:29 46.2 °F /  7.9 °C 41 °F /  5 °C 29.53in /  999.9hPa WNW 11.2mph /  18km/h 24mph /  38.6km/h 79% 0.00in /  0mm 218 W/m2
07:33 46.2 °F /  7.9 °C 41 °F /  5 °C 29.52in /  999.5hPa WNW 10.3mph /  16.6km/h 24mph /  38.6km/h 79% 0.00in /  0mm 220 W/m2
07:39 46.3 °F /  7.9 °C 41.1 °F /  5.1 °C 29.53in /  999.9hPa WNW 10.4mph /  16.7km/h 18mph /  29km/h 79% 0.00in /  0mm 281 W/m2
07:44 46.6 °F /  8.1 °C 41.4 °F /  5.2 °C 29.53in /  999.9hPa West 10.2mph /  16.4km/h 18mph /  29km/h 79% 0.00in /  0mm 244 W/m2
07:49 46.8 °F /  8.2 °C 41.5 °F /  5.3 °C 29.54in /  1000.2hPa WNW 8.7mph /  14km/h 18mph /  29km/h 79% 0.00in /  0mm 232 W/m2
07:54 46.6 °F /  8.1 °C 41.4 °F /  5.2 °C 29.54in /  1000.2hPa WNW 11.2mph /  18km/h 21mph /  33.8km/h 79% 0.00in /  0mm 151 W/m2
07:59 46.6 °F /  8.1 °C 41.1 °F /  5.1 °C 29.54in /  1000.2hPa WNW 10.3mph /  16.6km/h 21mph /  33.8km/h 78.2% 0.00in /  0mm 146 W/m2
08:04 46.8 °F /  8.2 °C 41.3 °F /  5.2 °C 29.54in /  1000.2hPa WNW 10mph /  16.1km/h 17mph /  27.4km/h 78.4% 0.00in /  0mm 341 W/m2
08:09 47 °F /  8.3 °C 41.4 °F /  5.2 °C 29.54in /  1000.2hPa WNW 11.1mph /  17.9km/h 22mph /  35.4km/h 78% 0.00in /  0mm 367 W/m2
08:14 47.1 °F /  8.4 °C 41.3 °F /  5.2 °C 29.55in /  1000.6hPa WNW 11.8mph /  19km/h 23mph /  37km/h 77.2% 0.00in /  0mm 220 W/m2
08:19 47.1 °F /  8.4 °C 41.2 °F /  5.1 °C 29.55in /  1000.6hPa WNW 12mph /  19.3km/h 24mph /  38.6km/h 77% 0.00in /  0mm 176 W/m2
08:24 47.1 °F /  8.4 °C 41.2 °F /  5.1 °C 29.56in /  1000.9hPa West 15.6mph /  25.1km/h 21mph /  33.8km/h 77% 0.00in /  0mm 160 W/m2
08:29 47 °F /  8.3 °C 41.1 °F /  5.1 °C 29.56in /  1000.9hPa WNW 12.4mph /  20km/h 24mph /  38.6km/h 77% 0.00in /  0mm 174 W/m2
08:34 47.1 °F /  8.4 °C 41 °F /  5 °C 29.56in /  1000.9hPa WNW 11.5mph /  18.5km/h 24mph /  38.6km/h 76.6% 0.00in /  0mm 176 W/m2
08:39 47.2 °F /  8.4 °C 41 °F /  5 °C 29.57in /  1001.2hPa WNW 11.4mph /  18.3km/h 21mph /  33.8km/h 76.2% 0.00in /  0mm 455 W/m2
08:44 47.5 °F /  8.6 °C 41.2 °F /  5.1 °C 29.57in /  1001.2hPa WNW 11.2mph /  18km/h 18mph /  29km/h 76% 0.00in /  0mm 236 W/m2
08:49 47.7 °F /  8.7 °C 41.2 °F /  5.1 °C 29.57in /  1001.2hPa WNW 15mph /  24.1km/h 28mph /  45.1km/h 75.6% 0.00in /  0mm 236 W/m2
08:54 47.7 °F /  8.7 °C 41 °F /  5 °C 29.57in /  1001.2hPa WNW 9.6mph /  15.4km/h 28mph /  45.1km/h 75% 0.00in /  0mm 214 W/m2
08:59 47.8 °F /  8.8 °C 41.2 °F /  5.1 °C 29.57in /  1001.2hPa WNW 8.6mph /  13.8km/h 19mph /  30.6km/h 75.2% 0.00in /  0mm 193 W/m2
09:04 47.7 °F /  8.7 °C 41 °F /  5 °C 29.58in /  1001.6hPa NW 12.7mph /  20.4km/h 26mph /  41.8km/h 74.8% 0.00in /  0mm 181 W/m2
09:09 47.7 °F /  8.7 °C 41 °F /  5 °C 29.58in /  1001.6hPa WNW 9.4mph /  15.1km/h 26mph /  41.8km/h 75% 0.00in /  0mm 200 W/m2
09:14 47.7 °F /  8.7 °C 41 °F /  5 °C 29.58in /  1001.6hPa WNW 14.8mph /  23.8km/h 22mph /  35.4km/h 75% 0.00in /  0mm 218 W/m2
09:19 47.7 °F /  8.7 °C 40.7 °F /  4.8 °C 29.59in /  1001.9hPa WNW 14.2mph /  22.9km/h 27mph /  43.5km/h 74.2% 0.00in /  0mm 345 W/m2
09:24 47.7 °F /  8.7 °C 40.7 °F /  4.8 °C 29.59in /  1001.9hPa West 13.8mph /  22.2km/h 23mph /  37km/h 74% 0.00in /  0mm 244 W/m2
09:29 47.8 °F /  8.8 °C 40.8 °F /  4.9 °C 29.59in /  1001.9hPa West 12.3mph /  19.8km/h 21mph /  33.8km/h 74% 0.00in /  0mm 225 W/m2
09:34 47.9 °F /  8.8 °C 40.9 °F /  4.9 °C 29.59in /  1001.9hPa WNW 8.4mph /  13.5km/h 19mph /  30.6km/h 74% 0.00in /  0mm 192 W/m2
09:39 48.3 °F /  9.1 °C 41.5 °F /  5.3 °C 29.59in /  1001.9hPa NW 9.4mph /  15.1km/h 17mph /  27.4km/h 74.8% 0.00in /  0mm 301 W/m2
09:44 48.1 °F /  8.9 °C 41.1 °F /  5.1 °C 29.59in /  1001.9hPa WNW 15mph /  24.1km/h 26mph /  41.8km/h 74% 0.00in /  0mm 209 W/m2
09:49 48 °F /  8.9 °C 41.2 °F /  5.1 °C 29.60in /  1002.3hPa West 12.4mph /  20km/h 19mph /  30.6km/h 74.4% 0.00in /  0mm 183 W/m2
09:54 47.8 °F /  8.8 °C 41.2 °F /  5.1 °C 29.60in /  1002.3hPa WNW 11.4mph /  18.3km/h 21mph /  33.8km/h 75% 0.00in /  0mm 174 W/m2
09:59 47.7 °F /  8.7 °C 41.3 °F /  5.2 °C 29.60in /  1002.3hPa West 14.2mph /  22.9km/h 21mph /  33.8km/h 75.8% 0.00in /  0mm 244 W/m2
10:04 47.7 °F /  8.7 °C 41 °F /  5 °C 29.60in /  1002.3hPa WNW 11.7mph /  18.8km/h 22mph /  35.4km/h 75% 0.00in /  0mm 292 W/m2
10:09 48 °F /  8.9 °C 41.4 °F /  5.2 °C 29.61in /  1002.6hPa NW 7.6mph /  12.2km/h 18mph /  29km/h 75.2% 0.00in /  0mm 258 W/m2
10:14 48.7 °F /  9.3 °C 42 °F /  5.6 °C 29.61in /  1002.6hPa NW 9.6mph /  15.4km/h 24mph /  38.6km/h 75% 0.00in /  0mm 323 W/m2
10:19 48.7 °F /  9.3 °C 41.5 °F /  5.3 °C 29.61in /  1002.6hPa WNW 10.5mph /  16.9km/h 21mph /  33.8km/h 73.4% 0.00in /  0mm 884 W/m2
10:24 49.2 °F /  9.6 °C 42.1 °F /  5.6 °C 29.61in /  1002.6hPa WNW 8.2mph /  13.2km/h 15mph /  24.1km/h 73.8% 0.00in /  0mm 316 W/m2
10:29 49.2 °F /  9.6 °C 41.6 °F /  5.3 °C 29.61in /  1002.6hPa WNW 12mph /  19.3km/h 27mph /  43.5km/h 72.4% 0.00in /  0mm 227 W/m2
10:34 49 °F /  9.4 °C 41 °F /  5 °C 29.62in /  1002.9hPa WNW 12.6mph /  20.3km/h 23mph /  37km/h 71.4% 0.00in /  0mm 236 W/m2
10:39 48.7 °F /  9.3 °C 40.6 °F /  4.8 °C 29.62in /  1002.9hPa WNW 13.8mph /  22.2km/h 27mph /  43.5km/h 71% 0.00in /  0mm 248 W/m2
10:44 48.8 °F /  9.3 °C 40.9 °F /  4.9 °C 29.62in /  1002.9hPa WNW 13.8mph /  22.2km/h 29mph /  46.7km/h 71.4% 0.00in /  0mm 371 W/m2
10:49 48.7 °F /  9.3 °C 40 °F /  4.4 °C 29.62in /  1002.9hPa WNW 15.6mph /  25.1km/h 29mph /  46.7km/h 69.2% 0.00in /  0mm 371 W/m2
10:54 49.3 °F /  9.6 °C 40.5 °F /  4.7 °C 29.62in /  1002.9hPa WNW 14.4mph /  23.2km/h 28mph /  45.1km/h 69.2% 0.00in /  0mm 399 W/m2
10:59 49.3 °F /  9.6 °C 40.2 °F /  4.6 °C 29.63in /  1003.3hPa WNW 14.4mph /  23.2km/h 23mph /  37km/h 68.2% 0.00in /  0mm 304 W/m2
11:04 49.5 °F /  9.7 °C 40.5 °F /  4.7 °C 29.63in /  1003.3hPa WNW 15.5mph /  24.9km/h 24mph /  38.6km/h 68.5% 0.00in /  0mm 304 W/m2
11:09 49.5 °F /  9.7 °C 40.3 °F /  4.6 °C 29.63in /  1003.3hPa WNW 12.2mph /  19.6km/h 26mph /  41.8km/h 68% 0.00in /  0mm 279 W/m2
11:13 49.5 °F /  9.7 °C 40.4 °F /  4.7 °C 29.63in /  1003.3hPa WNW 11.3mph /  18.2km/h 25mph /  40.2km/h 68.3% 0.00in /  0mm 279 W/m2
11:19 49.5 °F /  9.7 °C 40.4 °F /  4.7 °C 29.63in /  1003.3hPa WNW 13mph /  20.9km/h 23mph /  37km/h 68% 0.00in /  0mm 325 W/m2
11:24 49.5 °F /  9.7 °C 40.4 °F /  4.7 °C 29.64in /  1003.6hPa West 10.8mph /  17.4km/h 20mph /  32.2km/h 68% 0.00in /  0mm 378 W/m2
11:29 49.6 °F /  9.8 °C 40.4 °F /  4.7 °C 29.64in /  1003.6hPa WNW 14.8mph /  23.8km/h 24mph /  38.6km/h 68% 0.00in /  0mm 425 W/m2
11:34 49.8 °F /  9.9 °C 40.2 °F /  4.6 °C 29.64in /  1003.6hPa NW 14mph /  22.5km/h 24mph /  38.6km/h 67.2% 0.00in /  0mm 434 W/m2
11:38 50.1 °F /  10.1 °C 40.3 °F /  4.6 °C 29.64in /  1003.6hPa WNW 10.3mph /  16.6km/h 20mph /  32.2km/h 67% 0.00in /  0mm 350 W/m2
11:44 50.3 °F /  10.2 °C 40.3 °F /  4.6 °C 29.64in /  1003.6hPa NW 8.6mph /  13.8km/h 22mph /  35.4km/h 66.2% 0.00in /  0mm 350 W/m2
11:49 50.5 °F /  10.3 °C 40.5 °F /  4.7 °C 29.65in /  1003.9hPa NW 9.4mph /  15.1km/h 17mph /  27.4km/h 66% 0.00in /  0mm 367 W/m2
11:54 50.6 °F /  10.3 °C 40.2 °F /  4.6 °C 29.65in /  1003.9hPa NW 11.4mph /  18.3km/h 23mph /  37km/h 65.2% 0.00in /  0mm 357 W/m2
11:59 50.4 °F /  10.2 °C 39.7 °F /  4.3 °C 29.65in /  1003.9hPa WNW 13.7mph /  22km/h 23mph /  37km/h 64.2% 0.00in /  0mm 357 W/m2
12:04 50 °F /  10 °C 39.3 °F /  4.1 °C 29.65in /  1003.9hPa NW 11.8mph /  19km/h 23mph /  37km/h 64.2% 0.00in /  0mm 276 W/m2
12:09 49.8 °F /  9.9 °C 39.9 °F /  4.4 °C 29.65in /  1003.9hPa WNW 9.9mph /  15.9km/h 22mph /  35.4km/h 66.4% 0.00in /  0mm 294 W/m2
12:14 50 °F /  10 °C 40.1 °F /  4.5 °C 29.65in /  1003.9hPa WNW 10mph /  16.1km/h 18mph /  29km/h 66.6% 0.00in /  0mm 374 W/m2
12:19 50.5 °F /  10.3 °C 39.7 °F /  4.3 °C 29.65in /  1003.9hPa WNW 10.4mph /  16.7km/h 19mph /  30.6km/h 64% 0.00in /  0mm 374 W/m2
12:23 51 °F /  10.6 °C 39.6 °F /  4.2 °C 29.65in /  1003.9hPa WNW 13.6mph /  21.9km/h 18mph /  29km/h 63% 0.00in /  0mm 350 W/m2
12:29 50.9 °F /  10.5 °C 39.2 °F /  4 °C 29.66in /  1004.3hPa WNW 11.4mph /  18.3km/h 24mph /  38.6km/h 62% 0.00in /  0mm 965 W/m2
12:34 51.7 °F /  10.9 °C 39.5 °F /  4.2 °C 29.66in /  1004.3hPa WNW 10.5mph /  16.9km/h 19mph /  30.6km/h 61% 0.00in /  0mm 1032 W/m2
12:39 51.5 °F /  10.8 °C 39 °F /  3.9 °C 29.66in /  1004.3hPa WNW 12.4mph /  20km/h 22mph /  35.4km/h 60.4% 0.00in /  0mm 362 W/m2
12:44 50.7 °F /  10.4 °C 38.8 °F /  3.8 °C 29.66in /  1004.3hPa NW 11.2mph /  18km/h 30mph /  48.3km/h 61.4% 0.00in /  0mm 299 W/m2
12:49 50.8 °F /  10.4 °C 38.6 °F /  3.7 °C 29.66in /  1004.3hPa NW 16mph /  25.7km/h 23mph /  37km/h 60.8% 0.00in /  0mm 1018 W/m2
12:54 51.4 °F /  10.8 °C 38.4 °F /  3.6 °C 29.66in /  1004.3hPa NW 13.2mph /  21.2km/h 24mph /  38.6km/h 59% 0.00in /  0mm 316 W/m2
12:59 51.6 °F /  10.9 °C 38.5 °F /  3.6 °C 29.66in /  1004.3hPa NW 12.2mph /  19.6km/h 25mph /  40.2km/h 58.6% 0.00in /  0mm 1141 W/m2
13:04 51.6 °F /  10.9 °C 38.2 °F /  3.4 °C 29.66in /  1004.3hPa WNW 12mph /  19.3km/h 22mph /  35.4km/h 58.2% 0.00in /  0mm 1005 W/m2
13:09 51.3 °F /  10.7 °C 38 °F /  3.3 °C 29.66in /  1004.3hPa WNW 11.9mph /  19.2km/h 24mph /  38.6km/h 58.4% 0.00in /  0mm 220 W/m2
13:14 51 °F /  10.6 °C 38.2 °F /  3.4 °C 29.66in /  1004.3hPa WNW 8mph /  12.9km/h 21mph /  33.8km/h 59.6% 0.00in /  0mm 223 W/m2
13:19 51.1 °F /  10.6 °C 38.7 °F /  3.7 °C 29.66in /  1004.3hPa WNW 8.6mph /  13.8km/h 21mph /  33.8km/h 60.4% 0.00in /  0mm 241 W/m2
13:24 51.4 °F /  10.8 °C 38.5 °F /  3.6 °C 29.66in /  1004.3hPa WNW 10.8mph /  17.4km/h 18mph /  29km/h 59.2% 0.00in /  0mm 311 W/m2
13:29 51.6 °F /  10.9 °C 38.8 °F /  3.8 °C 29.66in /  1004.3hPa WNW 12.6mph /  20.3km/h 29mph /  46.7km/h 59.4% 0.00in /  0mm 297 W/m2
13:33 51.2 °F /  10.7 °C 38.2 °F /  3.4 °C 29.66in /  1004.3hPa WNW 13.3mph /  21.4km/h 24mph /  38.6km/h 59% 0.00in /  0mm 940 W/m2
13:39 51.5 °F /  10.8 °C 38.1 °F /  3.4 °C 29.66in /  1004.3hPa WNW 12.4mph /  20km/h 25mph /  40.2km/h 58.2% 0.00in /  0mm 949 W/m2
13:44 52.1 °F /  11.2 °C 37.1 °F /  2.8 °C 29.66in /  1004.3hPa WNW 13.3mph /  21.4km/h 26mph /  41.8km/h 54.6% 0.00in /  0mm 1041 W/m2
13:49 53 °F /  11.7 °C 38.2 °F /  3.4 °C 29.66in /  1004.3hPa WNW 13mph /  20.9km/h 22mph /  35.4km/h 55.3% 0.00in /  0mm 1037 W/m2
13:54 52.3 °F /  11.3 °C 37.9 °F /  3.3 °C 29.66in /  1004.3hPa NW 12.9mph /  20.8km/h 23mph /  37km/h 56% 0.00in /  0mm 223 W/m2
13:59 51.2 °F /  10.7 °C 37.6 °F /  3.1 °C 29.66in /  1004.3hPa NW 10.6mph /  17.1km/h 20mph /  32.2km/h 57.6% 0.00in /  0mm 172 W/m2
14:04 50.7 °F /  10.4 °C 36.8 °F /  2.7 °C 29.67in /  1004.6hPa NW 14.6mph /  23.5km/h 22mph /  35.4km/h 56.8% 0.00in /  0mm 919 W/m2
14:09 51.2 °F /  10.7 °C 36.9 °F /  2.7 °C 29.67in /  1004.6hPa WNW 10.2mph /  16.4km/h 19mph /  30.6km/h 56% 0.00in /  0mm 958 W/m2
14:14 52.2 °F /  11.2 °C 37.8 °F /  3.2 °C 29.67in /  1004.6hPa WNW 12.6mph /  20.3km/h 22mph /  35.4km/h 56% 0.00in /  0mm 886 W/m2
14:19 52.5 °F /  11.4 °C 37.6 °F /  3.1 °C 29.66in /  1004.3hPa NW 13mph /  20.9km/h 25mph /  40.2km/h 54.8% 0.00in /  0mm 942 W/m2
14:24 53.5 °F /  11.9 °C 38.8 °F /  3.8 °C 29.67in /  1004.6hPa WNW 10.2mph /  16.4km/h 20mph /  32.2km/h 55.4% 0.00in /  0mm 942 W/m2
14:29 53.1 °F /  11.7 °C 38.1 °F /  3.4 °C 29.67in /  1004.6hPa WNW 9.8mph /  15.8km/h 19mph /  30.6km/h 55% 0.00in /  0mm 381 W/m2
14:34 53.4 °F /  11.9 °C 37.8 °F /  3.2 °C 29.67in /  1004.6hPa WNW 13.4mph /  21.6km/h 24mph /  38.6km/h 53.6% 0.00in /  0mm 1025 W/m2
14:39 52.9 °F /  11.6 °C 37.2 °F /  2.9 °C 29.67in /  1004.6hPa WNW 15.2mph /  24.5km/h 20mph /  32.2km/h 53.2% 0.00in /  0mm 243 W/m2
14:44 51.7 °F /  10.9 °C 37.4 °F /  3 °C 29.67in /  1004.6hPa NW 14.4mph /  23.2km/h 24mph /  38.6km/h 56.4% 0.00in /  0mm 257 W/m2
14:49 50.2 °F /  10.1 °C 38.8 °F /  3.8 °C 29.68in /  1005hPa WNW 13mph /  20.9km/h 26mph /  41.8km/h 62.8% 0.00in /  0mm 381 W/m2
14:54 49.8 °F /  9.9 °C 39.8 °F /  4.3 °C 29.68in /  1005hPa WNW 10.8mph /  17.4km/h 21mph /  33.8km/h 66.4% 0.00in /  0mm 571 W/m2
14:59 50.4 °F /  10.2 °C 39.3 °F /  4.1 °C 29.67in /  1004.6hPa WNW 9.4mph /  15.1km/h 18mph /  29km/h 63.4% 0.00in /  0mm 893 W/m2
15:04 51.2 °F /  10.7 °C 39.3 °F /  4.1 °C 29.68in /  1005hPa WNW 9.2mph /  14.8km/h 18mph /  29km/h 61.4% 0.00in /  0mm 814 W/m2
15:09 51.4 °F /  10.8 °C 38.7 °F /  3.7 °C 29.67in /  1004.6hPa WNW 10mph /  16.1km/h 20mph /  32.2km/h 59.8% 0.00in /  0mm 754 W/m2
15:14 51.4 °F /  10.8 °C 39.4 °F /  4.1 °C 29.68in /  1005hPa West 10mph /  16.1km/h 23mph /  37km/h 61% 0.00in /  0mm 969 W/m2
15:19 51.7 °F /  10.9 °C 39.7 °F /  4.3 °C 29.68in /  1005hPa West 10mph /  16.1km/h 19mph /  30.6km/h 61.2% 0.00in /  0mm 958 W/m2
15:24 51.8 °F /  11 °C 39 °F /  3.9 °C 29.68in /  1005hPa WNW 13.6mph /  21.9km/h 21mph /  33.8km/h 59.4% 0.00in /  0mm 788 W/m2
15:29 52.1 °F /  11.2 °C 39 °F /  3.9 °C 29.67in /  1004.6hPa WNW 8.8mph /  14.2km/h 21mph /  33.8km/h 59% 0.00in /  0mm 925 W/m2
15:34 52.6 °F /  11.4 °C 38.7 °F /  3.7 °C 29.67in /  1004.6hPa West 11.6mph /  18.7km/h 21mph /  33.8km/h 57.2% 0.00in /  0mm 925 W/m2
15:39 52.1 °F /  11.2 °C 38.2 °F /  3.4 °C 29.68in /  1005hPa WNW 15.2mph /  24.5km/h 25mph /  40.2km/h 56.8% 0.00in /  0mm 262 W/m2
15:44 51.6 °F /  10.9 °C 38.4 °F /  3.6 °C 29.68in /  1005hPa WNW 12.2mph /  19.6km/h 29mph /  46.7km/h 58.6% 0.00in /  0mm 367 W/m2
15:49 51.5 °F /  10.8 °C 38.9 °F /  3.8 °C 29.68in /  1005hPa West 12.2mph /  19.6km/h 24mph /  38.6km/h 60% 0.00in /  0mm 367 W/m2
15:54 50.5 °F /  10.3 °C 39 °F /  3.9 °C 29.68in /  1005hPa WNW 15.8mph /  25.4km/h 29mph /  46.7km/h 62.4% 0.00in /  0mm 345 W/m2
15:59 50.4 °F /  10.2 °C 40.2 °F /  4.6 °C 29.68in /  1005hPa WNW 8.2mph /  13.2km/h 29mph /  46.7km/h 65.8% 0.00in /  0mm 872 W/m2
16:04 51.1 °F /  10.6 °C 40.6 °F /  4.8 °C 29.68in /  1005hPa WNW 10.6mph /  17.1km/h 20mph /  32.2km/h 65% 0.00in /  0mm 777 W/m2
16:09 50.6 °F /  10.3 °C 40.6 °F /  4.8 °C 29.69in /  1005.3hPa WNW 10mph /  16.1km/h 19mph /  30.6km/h 66% 0.00in /  0mm 118 W/m2
16:14 49.6 °F /  9.8 °C 40.4 °F /  4.7 °C 29.69in /  1005.3hPa WNW 16.3mph /  26.2km/h 29mph /  46.7km/h 68% 0.00in /  0mm 216 W/m2
16:19 48.5 °F /  9.2 °C 40 °F /  4.4 °C 29.69in /  1005.3hPa West 8.8mph /  14.2km/h 21mph /  33.8km/h 69.8% 0.00in /  0mm 751 W/m2
16:24 49.3 °F /  9.6 °C 40.7 °F /  4.8 °C 29.69in /  1005.3hPa WNW 8.6mph /  13.8km/h 17mph /  27.4km/h 69.4% 0.00in /  0mm 708 W/m2
16:29 50.7 °F /  10.4 °C 40.8 °F /  4.9 °C 29.69in /  1005.3hPa WNW 9.2mph /  14.8km/h 17mph /  27.4km/h 66.6% 0.00in /  0mm 671 W/m2
16:34 50.6 °F /  10.3 °C 39.9 °F /  4.4 °C 29.69in /  1005.3hPa WNW 11.1mph /  17.9km/h 19mph /  30.6km/h 64.2% 0.00in /  0mm 225 W/m2
16:39 50.4 °F /  10.2 °C 39.9 °F /  4.4 °C 29.69in /  1005.3hPa NW 12mph /  19.3km/h 21mph /  33.8km/h 65% 0.00in /  0mm 207 W/m2
16:44 49.5 °F /  9.7 °C 39 °F /  3.9 °C 29.70in /  1005.6hPa NW 12.4mph /  20km/h 28mph /  45.1km/h 64.8% 0.00in /  0mm 241 W/m2
16:49 48.7 °F /  9.3 °C 38.4 °F /  3.6 °C 29.70in /  1005.6hPa WNW 14.1mph /  22.7km/h 28mph /  45.1km/h 65.3% 0.00in /  0mm 193 W/m2
16:54 47.4 °F /  8.6 °C 39.3 °F /  4.1 °C 29.71in /  1006hPa WNW 9.8mph /  15.8km/h 26mph /  41.8km/h 70.8% 0.00in /  0mm 248 W/m2
16:59 47 °F /  8.3 °C 39.2 °F /  4 °C 29.70in /  1005.6hPa WNW 9.2mph /  14.8km/h 14mph /  22.5km/h 71.8% 0.00in /  0mm 640 W/m2
17:04 48 °F /  8.9 °C 39.4 °F /  4.1 °C 29.70in /  1005.6hPa WNW 6.8mph /  10.9km/h 16mph /  25.7km/h 69.4% 0.00in /  0mm 605 W/m2
17:09 49.3 °F /  9.6 °C 38.9 °F /  3.8 °C 29.69in /  1005.3hPa WNW 12.3mph /  19.8km/h 20mph /  32.2km/h 65% 0.00in /  0mm 533 W/m2
17:14 50 °F /  10 °C 38.2 °F /  3.4 °C 29.69in /  1005.3hPa NW 11.6mph /  18.7km/h 21mph /  33.8km/h 61.6% 0.00in /  0mm 515 W/m2
17:19 50.8 °F /  10.4 °C 38.1 °F /  3.4 °C 29.69in /  1005.3hPa NW 8.1mph /  13km/h 16mph /  25.7km/h 59.6% 0.00in /  0mm 501 W/m2
17:24 51.3 °F /  10.7 °C 37.9 °F /  3.3 °C 29.69in /  1005.3hPa NW 9.8mph /  15.8km/h 20mph /  32.2km/h 58% 0.00in /  0mm 489 W/m2
17:29 51.3 °F /  10.7 °C 37.5 °F /  3.1 °C 29.69in /  1005.3hPa WNW 13mph /  20.9km/h 23mph /  37km/h 57.2% 0.00in /  0mm 487 W/m2
17:34 51.1 °F /  10.6 °C 37.4 °F /  3 °C 29.69in /  1005.3hPa WNW 12.4mph /  20km/h 19mph /  30.6km/h 57.6% 0.00in /  0mm 487 W/m2
17:39 50.4 °F /  10.2 °C 37.2 °F /  2.9 °C 29.70in /  1005.6hPa NW 11.3mph /  18.2km/h 23mph /  37km/h 58.4% 0.00in /  0mm 429 W/m2
17:44 50 °F /  10 °C 37.7 °F /  3.2 °C 29.70in /  1005.6hPa NW 10.6mph /  17.1km/h 19mph /  30.6km/h 60.4% 0.00in /  0mm 188 W/m2
17:49 49.5 °F /  9.7 °C 38.6 °F /  3.7 °C 29.70in /  1005.6hPa WNW 10.7mph /  17.2km/h 19mph /  30.6km/h 63.8% 0.00in /  0mm 130 W/m2
17:54 48.9 °F /  9.4 °C 38.4 °F /  3.6 °C 29.70in /  1005.6hPa NW 11.4mph /  18.3km/h 22mph /  35.4km/h 64.6% 0.00in /  0mm 130 W/m2
17:59 48.6 °F /  9.2 °C 38.1 °F /  3.4 °C 29.70in /  1005.6hPa WNW 12.8mph /  20.6km/h 22mph /  35.4km/h 65% 0.00in /  0mm 98 W/m2
18:04 48.5 °F /  9.2 °C 38.8 °F /  3.8 °C 29.70in /  1005.6hPa WNW 9.5mph /  15.3km/h 16mph /  25.7km/h 66.8% 0.00in /  0mm 424 W/m2
18:09 48.6 °F /  9.2 °C 39.7 °F /  4.3 °C 29.70in /  1005.6hPa West 8.8mph /  14.2km/h 14mph /  22.5km/h 69% 0.00in /  0mm 397 W/m2
18:14 48.6 °F /  9.2 °C 39.9 °F /  4.4 °C 29.69in /  1005.3hPa WNW 6.9mph /  11.1km/h 15mph /  24.1km/h 69.4% 0.00in /  0mm 359 W/m2
18:19 48.8 °F /  9.3 °C 40 °F /  4.4 °C 29.69in /  1005.3hPa WNW 9.4mph /  15.1km/h 16mph /  25.7km/h 69% 0.00in /  0mm 345 W/m2
18:24 49.3 °F /  9.6 °C 40 °F /  4.4 °C 29.69in /  1005.3hPa WNW 8.8mph /  14.2km/h 16mph /  25.7km/h 67.8% 0.00in /  0mm 330 W/m2
18:29 49.6 °F /  9.8 °C 38.7 °F /  3.7 °C 29.69in /  1005.3hPa NW 13.1mph /  21.1km/h 19mph /  30.6km/h 63.8% 0.00in /  0mm 315 W/m2
18:34 49.8 °F /  9.9 °C 38.1 °F /  3.4 °C 29.69in /  1005.3hPa NW 6.9mph /  11.1km/h 19mph /  30.6km/h 62% 0.00in /  0mm 302 W/m2
18:39 49.6 °F /  9.8 °C 38.2 °F /  3.4 °C 29.70in /  1005.6hPa WNW 8.3mph /  13.4km/h 18mph /  29km/h 62.4% 0.00in /  0mm 302 W/m2
18:44 49.1 °F /  9.5 °C 37.8 °F /  3.2 °C 29.70in /  1005.6hPa WNW 8.2mph /  13.2km/h 18mph /  29km/h 62.8% 0.00in /  0mm 60 W/m2
18:49 48.7 °F /  9.3 °C 37.8 °F /  3.2 °C 29.69in /  1005.3hPa WNW 8.6mph /  13.8km/h 21mph /  33.8km/h 63.8% 0.00in /  0mm 102 W/m2
18:54 48.8 °F /  9.3 °C 38 °F /  3.3 °C 29.69in /  1005.3hPa West 8.4mph /  13.5km/h 19mph /  30.6km/h 64% 0.00in /  0mm 246 W/m2
18:59 48.9 °F /  9.4 °C 38 °F /  3.3 °C 29.69in /  1005.3hPa West 13.8mph /  22.2km/h 20mph /  32.2km/h 63.8% 0.00in /  0mm 227 W/m2
19:04 48.8 °F /  9.3 °C 38.1 °F /  3.4 °C 29.69in /  1005.3hPa WNW 11.8mph /  19km/h 24mph /  38.6km/h 64.2% 0.00in /  0mm 197 W/m2
19:09 48.7 °F /  9.3 °C 37.9 °F /  3.3 °C 29.70in /  1005.6hPa WNW 11mph /  17.7km/h 19mph /  30.6km/h 64% 0.00in /  0mm 183 W/m2
19:14 48.6 °F /  9.2 °C 38 °F /  3.3 °C 29.69in /  1005.3hPa WNW 11.8mph /  19km/h 21mph /  33.8km/h 64.4% 0.00in /  0mm 158 W/m2
19:19 48.4 °F /  9.1 °C 38.3 °F /  3.5 °C 29.70in /  1005.6hPa WNW 12.6mph /  20.3km/h 18mph /  29km/h 65.6% 0.00in /  0mm 149 W/m2
19:24 48.2 °F /  9 °C 38.3 °F /  3.5 °C 29.70in /  1005.6hPa WNW 9.2mph /  14.8km/h 17mph /  27.4km/h 66% 0.00in /  0mm 54 W/m2
19:29 47.7 °F /  8.7 °C 38.3 °F /  3.5 °C 29.70in /  1005.6hPa WNW 5.8mph /  9.3km/h 17mph /  27.4km/h 67.2% 0.00in /  0mm 76 W/m2
19:34 47.7 °F /  8.7 °C 38.5 °F /  3.6 °C 29.70in /  1005.6hPa West 7.6mph /  12.2km/h 17mph /  27.4km/h 68% 0.00in /  0mm 97 W/m2
19:39 47.7 °F /  8.7 °C 38.5 °F /  3.6 °C 29.70in /  1005.6hPa WNW 7.6mph /  12.2km/h 14mph /  22.5km/h 68% 0.00in /  0mm 25 W/m2
19:44 47.7 °F /  8.7 °C 38.5 °F /  3.6 °C 29.70in /  1005.6hPa West 7.8mph /  12.6km/h 13mph /  20.9km/h 68% 0.00in /  0mm 39 W/m2
19:49 47.7 °F /  8.7 °C 38.8 °F /  3.8 °C 29.70in /  1005.6hPa WNW 5.3mph /  8.5km/h 11mph /  17.7km/h 69% 0.00in /  0mm 56 W/m2
19:54 47.9 °F /  8.8 °C 39.1 °F /  3.9 °C 29.70in /  1005.6hPa WNW 5.6mph /  9km/h 11mph /  17.7km/h 69% 0.00in /  0mm 70 W/m2
19:59 48.1 °F /  8.9 °C 39.3 °F /  4.1 °C 29.71in /  1006hPa West 4mph /  6.4km/h 9mph /  14.5km/h 69% 0.00in /  0mm 51 W/m2
20:04 48.1 °F /  8.9 °C 39.3 °F /  4.1 °C 29.71in /  1006hPa WNW 5.8mph /  9.3km/h 9mph /  14.5km/h 69% 0.00in /  0mm 46 W/m2
20:09 47.9 °F /  8.8 °C 39.3 °F /  4.1 °C 29.71in /  1006hPa WNW 5.5mph /  8.9km/h 11mph /  17.7km/h 69.4% 0.00in /  0mm 37 W/m2
20:14 47.7 °F /  8.7 °C 39 °F /  3.9 °C 29.71in /  1006hPa WNW 6.4mph /  10.3km/h 12mph /  19.3km/h 69.5% 0.00in /  0mm 30 W/m2
20:19 47.7 °F /  8.7 °C 38.7 °F /  3.7 °C 29.71in /  1006hPa WNW 6.8mph /  10.9km/h 17mph /  27.4km/h 68.6% 0.00in /  0mm 21 W/m2
20:24 47.7 °F /  8.7 °C 37.8 °F /  3.2 °C 29.71in /  1006hPa WNW 7.8mph /  12.6km/h 17mph /  27.4km/h 66% 0.00in /  0mm 18 W/m2
20:29 47.4 °F /  8.6 °C 37.5 °F /  3.1 °C 29.71in /  1006hPa NW 6.6mph /  10.6km/h 14mph /  22.5km/h 66% 0.00in /  0mm 9 W/m2
20:34 47 °F /  8.3 °C 37.4 °F /  3 °C 29.71in /  1006hPa WNW 7.9mph /  12.7km/h 12mph /  19.3km/h 66.6% 0.00in /  0mm 7 W/m2
20:39 46.8 °F /  8.2 °C 37.2 °F /  2.9 °C 29.71in /  1006hPa NW 7.3mph /  11.7km/h 12mph /  19.3km/h 67% 0.00in /  0mm 5 W/m2
20:44 46.6 °F /  8.1 °C 37.3 °F /  2.9 °C 29.71in /  1006hPa NW 3.9mph /  6.3km/h 12mph /  19.3km/h 67.6% 0.00in /  0mm 0 W/m2
20:49 46.5 °F /  8.1 °C 37.3 °F /  2.9 °C 29.72in /  1006.3hPa NW 4.4mph /  7.1km/h 10mph /  16.1km/h 68% 0.00in /  0mm 0 W/m2
20:54 46.2 °F /  7.9 °C 37.4 °F /  3 °C 29.72in /  1006.3hPa NW 4.2mph /  6.8km/h 10mph /  16.1km/h 69% 0.00in /  0mm 0 W/m2
20:59 46.2 °F /  7.9 °C 37.4 °F /  3 °C 29.72in /  1006.3hPa NW 4.1mph /  6.6km/h 9mph /  14.5km/h 69% 0.00in /  0mm 0 W/m2
21:04 46.2 °F /  7.9 °C 37.7 °F /  3.2 °C 29.72in /  1006.3hPa WNW 5.3mph /  8.5km/h 12mph /  19.3km/h 69.8% 0.00in /  0mm 0 W/m2
21:09 46.2 °F /  7.9 °C 37.7 °F /  3.2 °C 29.72in /  1006.3hPa NW 6.4mph /  10.3km/h 13mph /  20.9km/h 69.8% 0.00in /  0mm 0 W/m2
21:14 46.1 °F /  7.8 °C 37.6 °F /  3.1 °C 29.72in /  1006.3hPa NW 7.4mph /  11.9km/h 17mph /  27.4km/h 69.8% 0.00in /  0mm 0 W/m2
21:19 46 °F /  7.8 °C 36.9 °F /  2.7 °C 29.73in /  1006.7hPa NW 11.6mph /  18.7km/h 19mph /  30.6km/h 68.3% 0.00in /  0mm 0 W/m2
21:24 45.7 °F /  7.6 °C 36.5 °F /  2.5 °C 29.73in /  1006.7hPa NW 8.7mph /  14km/h 17mph /  27.4km/h 68% 0.00in /  0mm 0 W/m2
21:29 45.6 °F /  7.6 °C 36.5 °F /  2.5 °C 29.73in /  1006.7hPa NW 10.3mph /  16.6km/h 18mph /  29km/h 68% 0.00in /  0mm 0 W/m2
21:34 45.3 °F /  7.4 °C 36.3 °F /  2.4 °C 29.73in /  1006.7hPa NW 8mph /  12.9km/h 18mph /  29km/h 68% 0.00in /  0mm 0 W/m2
21:39 45.2 °F /  7.3 °C 36.2 °F /  2.3 °C 29.73in /  1006.7hPa WNW 9.6mph /  15.4km/h 17mph /  27.4km/h 68% 0.00in /  0mm 0 W/m2
21:44 45 °F /  7.2 °C 36.2 °F /  2.3 °C 29.74in /  1007hPa NW 9.6mph /  15.4km/h 18mph /  29km/h 68.6% 0.00in /  0mm 0 W/m2
21:49 44.8 °F /  7.1 °C 36.2 °F /  2.3 °C 29.73in /  1006.7hPa WNW 8mph /  12.9km/h 18mph /  29km/h 69.2% 0.00in /  0mm 0 W/m2
21:54 44.7 °F /  7.1 °C 36.5 °F /  2.5 °C 29.74in /  1007hPa NW 10.7mph /  17.2km/h 17mph /  27.4km/h 70.2% 0.00in /  0mm 0 W/m2
21:59 44.4 °F /  6.9 °C 36.5 °F /  2.5 °C 29.74in /  1007hPa NW 8.1mph /  13km/h 14mph /  22.5km/h 71% 0.00in /  0mm 0 W/m2
22:04 44.2 °F /  6.8 °C 36.5 °F /  2.5 °C 29.74in /  1007hPa NW 5.3mph /  8.5km/h 14mph /  22.5km/h 71.6% 0.00in /  0mm 0 W/m2
22:09 44.1 °F /  6.7 °C 36.5 °F /  2.5 °C 29.74in /  1007hPa NW 6.2mph /  10km/h 14mph /  22.5km/h 72% 0.00in /  0mm 0 W/m2
22:14 43.9 °F /  6.6 °C 36.5 °F /  2.5 °C 29.74in /  1007hPa WNW 5.9mph /  9.5km/h 10mph /  16.1km/h 72.4% 0.00in /  0mm 0 W/m2
22:18 43.8 °F /  6.6 °C 36.7 °F /  2.6 °C 29.74in /  1007hPa WNW 5.3mph /  8.5km/h 9mph /  14.5km/h 73% 0.00in /  0mm 0 W/m2
22:24 43.6 °F /  6.4 °C 36.4 °F /  2.4 °C 29.74in /  1007hPa NW 5.2mph /  8.4km/h 9mph /  14.5km/h 73% 0.00in /  0mm 0 W/m2
22:29 43.5 °F /  6.4 °C 36.3 °F /  2.4 °C 29.74in /  1007hPa NW 3.8mph /  6.1km/h 9mph /  14.5km/h 73% 0.00in /  0mm 0 W/m2
22:34 43.5 °F /  6.4 °C 36.7 °F /  2.6 °C 29.74in /  1007hPa NW 5.1mph /  8.2km/h 9mph /  14.5km/h 74% 0.00in /  0mm 0 W/m2
22:39 43.5 °F /  6.4 °C 36.7 °F /  2.6 °C 29.75in /  1007.3hPa NW 4.4mph /  7.1km/h 7mph /  11.3km/h 74% 0.00in /  0mm 0 W/m2
22:44 43.5 °F /  6.4 °C 36.7 °F /  2.6 °C 29.74in /  1007hPa NW 4.9mph /  7.9km/h 10mph /  16.1km/h 74% 0.00in /  0mm 0 W/m2
22:49 43.5 °F /  6.4 °C 36.7 °F /  2.6 °C 29.75in /  1007.3hPa NW 4.8mph /  7.7km/h 10mph /  16.1km/h 74% 0.00in /  0mm 0 W/m2
22:54 43.7 °F /  6.5 °C 37.1 °F /  2.8 °C 29.75in /  1007.3hPa WNW 7.2mph /  11.6km/h 18mph /  29km/h 74.6% 0.00in /  0mm 0 W/m2
22:59 43.5 °F /  6.4 °C 37.5 °F /  3.1 °C 29.75in /  1007.3hPa NW 6.2mph /  10km/h 12mph /  19.3km/h 76.2% 0.00in /  0mm 0 W/m2
23:04 43.3 °F /  6.3 °C 37.5 °F /  3.1 °C 29.75in /  1007.3hPa NW 6.5mph /  10.5km/h 15mph /  24.1km/h 77% 0.00in /  0mm 0 W/m2
23:09 43.1 °F /  6.2 °C 37.4 °F /  3 °C 29.75in /  1007.3hPa WNW 6.7mph /  10.8km/h 14mph /  22.5km/h 77.4% 0.00in /  0mm 0 W/m2
23:14 43 °F /  6.1 °C 37.4 °F /  3 °C 29.75in /  1007.3hPa NW 6.6mph /  10.6km/h 14mph /  22.5km/h 78% 0.00in /  0mm 0 W/m2
23:19 42.6 °F /  5.9 °C 37 °F /  2.8 °C 29.75in /  1007.3hPa NW 6mph /  9.7km/h 15mph /  24.1km/h 78% 0.00in /  0mm 0 W/m2
23:24 42.5 °F /  5.8 °C 36.9 °F /  2.7 °C 29.75in /  1007.3hPa NW 8mph /  12.9km/h 14mph /  22.5km/h 78% 0.00in /  0mm 0 W/m2
23:29 42.3 °F /  5.7 °C 36.9 °F /  2.7 °C 29.75in /  1007.3hPa NW 6.2mph /  10km/h 14mph /  22.5km/h 78.4% 0.00in /  0mm 0 W/m2
23:34 42.1 °F /  5.6 °C 36.9 °F /  2.7 °C 29.75in /  1007.3hPa WNW 5.3mph /  8.5km/h 10mph /  16.1km/h 79% 0.00in /  0mm 0 W/m2
23:39 41.9 °F /  5.5 °C 36.7 °F /  2.6 °C 29.75in /  1007.3hPa WNW 4.4mph /  7.1km/h 9mph /  14.5km/h 79% 0.00in /  0mm 0 W/m2
23:44 41.6 °F /  5.3 °C 36.8 °F /  2.7 °C 29.75in /  1007.3hPa WNW 3.8mph /  6.1km/h 7mph /  11.3km/h 80% 0.00in /  0mm 0 W/m2
23:49 41.4 °F /  5.2 °C 36.6 °F /  2.6 °C 29.75in /  1007.3hPa WNW 4.3mph /  6.9km/h 8mph /  12.9km/h 80% 0.00in /  0mm 0 W/m2
23:54 41.2 °F /  5.1 °C 36.5 °F /  2.5 °C 29.75in /  1007.3hPa WNW 3.2mph /  5.1km/h 5mph /  8km/h 80.4% 0.00in /  0mm 0 W/m2
23:59 41 °F /  5 °C 36.6 °F /  2.6 °C 29.75in /  1007.3hPa WNW 3.2mph /  5.1km/h 5mph /  8km/h 81.4% 0.00in /  0mm 0 W/m2
Bath Spa Weather
Compliments of Weather Underground - 2 mb